Página principal
METAR-TAF:

METAR-TAF

Aeroportos :

Aeroporto Internacional de Djerba-Zarzis

Djerba, Tunísia

latitude: 33-52N, longitude: 010-46E, altura: 3 m

Observação actual do tempo

O boletim foi feito há 24 minutos, às 17:00 UTC
Vento 17 kt de nordeste
Temperatura 30°C
Humidade 52%
Pressão 1011 hPa
Visibilidade: 8000 m
Nuvens dispersasa uma altura de 2000 ft

METAR: DTTJ 231700Z 05017KT 8000 SCT020 30/19 Q1011 NOSIG

Hora: 18:24 (17:24 UTC)

Previsão

O boletim foi feito há 6 horas e 24 minutos, às 11:00 UTC
Previsão válida de 23 às 12 UTC a 24 às 12 UTC
Vento 19 kt de norte
Visibilidade 10 km ou mais
Nuvens dispersasa uma altura de 2500 ft
Tornando-se
de 23 às 16 UTC a 23 às 18 UTC
Vento 16 kt de es-nordeste
Tornando-se
de 24 às 02 UTC a 24 às 04 UTC
Vento 6 kt de es-nordeste

TAF: DTTJ 231100Z 2312/2412 01019KT 9999 SCT025 BECMG 2316/2318 07016KT BECMG 2402/2404 07006KT

Observações e previsões do tempo de mais de 4000 aeroportos (mensagens METAR e TAF).

As estações disponíveis são os pontos amarelos e vermelhos sobre o mapa.

Mova o rato sobre o mapa para ver o nome da estação.

Depois clique no ponto para visualizar as observações e previsões meteorológicas.

Para alterar o mapa : clique nos botões verdes com uma cruz preta para aumentar o zoom; no botão verde com uma pitada de zoom; ou nas setas verdes para mapas adjacentes.


METAR-TAF: